createdAt,value
2019-04-20T00:01:41.170Z,14.30
2019-04-20T00:04:17.008Z,14.30
2019-04-20T00:06:46.713Z,14.30
2019-04-20T00:09:15.853Z,14.20
2019-04-20T00:11:54.589Z,14.30
2019-04-20T00:14:17.330Z,14.30
2019-04-20T00:16:44.175Z,14.40
2019-04-20T00:19:15.324Z,14.50
2019-04-20T00:21:57.765Z,14.60
2019-04-20T00:24:31.125Z,14.70
2019-04-20T00:27:15.910Z,14.60
2019-04-20T00:29:45.239Z,14.50
2019-04-20T00:32:09.624Z,14.40
2019-04-20T00:34:33.782Z,14.40
2019-04-20T00:37:02.192Z,14.20
2019-04-20T00:39:32.003Z,14.10
2019-04-20T00:42:06.216Z,14.10
2019-04-20T00:44:35.893Z,14.00
2019-04-20T00:47:14.598Z,14.10
2019-04-20T00:49:45.437Z,14.10
2019-04-20T00:52:30.989Z,14.20
2019-04-20T00:54:34.881Z,14.20
2019-04-20T00:57:13.351Z,14.30
2019-04-20T00:59:55.233Z,14.30
2019-04-20T01:02:22.219Z,14.30
2019-04-20T01:04:57.930Z,14.10
2019-04-20T01:07:27.381Z,14.00
2019-04-20T01:10:09.216Z,14.00
2019-04-20T01:12:40.614Z,14.10
2019-04-20T01:15:11.850Z,14.00
2019-04-20T01:17:41.806Z,13.80
2019-04-20T01:20:11.571Z,13.60
2019-04-20T01:22:48.170Z,13.50
2019-04-20T01:25:18.180Z,13.40
2019-04-20T01:28:01.880Z,13.30
2019-04-20T01:30:22.543Z,13.30
2019-04-20T01:33:00.159Z,13.30
2019-04-20T01:35:30.441Z,13.50
2019-04-20T01:38:08.199Z,13.50
2019-04-20T01:40:17.211Z,13.40
2019-04-20T01:42:46.749Z,13.40
2019-04-20T01:45:23.519Z,13.40
2019-04-20T01:47:52.349Z,13.50
2019-04-20T01:50:23.020Z,13.50
2019-04-20T01:52:58.239Z,13.50
2019-04-20T01:55:44.068Z,13.50
2019-04-20T01:58:37.684Z,13.50
2019-04-20T02:01:25.154Z,13.40
2019-04-20T02:03:57.194Z,13.40
2019-04-20T02:06:28.492Z,13.30
2019-04-20T02:09:03.385Z,13.10
2019-04-20T02:11:34.508Z,13.10
2019-04-20T02:14:02.421Z,13.20
2019-04-20T02:16:37.265Z,13.20
2019-04-20T02:19:14.435Z,13.20
2019-04-20T02:21:50.235Z,13.20
2019-04-20T02:24:04.632Z,13.10
2019-04-20T02:26:32.330Z,13.10
2019-04-20T02:29:24.656Z,13.20
2019-04-20T02:32:10.318Z,13.20
2019-04-20T02:34:55.510Z,13.20
2019-04-20T02:37:49.382Z,13.10
2019-04-20T02:40:12.874Z,13.10
2019-04-20T02:42:46.686Z,13.00
2019-04-20T02:50:14.976Z,12.80
2019-04-20T02:55:14.785Z,12.70
2019-04-20T02:57:47.878Z,12.70
2019-04-20T03:02:27.439Z,12.60
2019-04-20T03:04:56.278Z,12.60
2019-04-20T03:07:31.679Z,12.70
2019-04-20T03:10:06.518Z,12.80
2019-04-20T03:12:38.868Z,12.90
2019-04-20T03:15:01.669Z,13.00
2019-04-20T03:17:41.404Z,13.00
2019-04-20T03:20:06.835Z,13.00
2019-04-20T03:23:05.456Z,12.90
2019-04-20T03:25:17.905Z,12.80
2019-04-20T03:27:59.645Z,12.80
2019-04-20T03:33:26.334Z,12.50
2019-04-20T03:35:52.847Z,12.40
2019-04-20T03:38:10.410Z,12.30
2019-04-20T03:40:37.472Z,12.20
2019-04-20T03:42:54.818Z,12.20
2019-04-20T03:45:26.288Z,12.20
2019-04-20T03:48:07.401Z,12.30
2019-04-20T03:50:46.683Z,12.50
2019-04-20T03:53:23.106Z,12.60
2019-04-20T03:55:56.682Z,12.60
2019-04-20T03:58:33.446Z,12.70
2019-04-20T04:01:13.327Z,12.70
2019-04-20T04:03:53.783Z,12.60
2019-04-20T04:06:15.672Z,12.50
2019-04-20T04:08:41.337Z,12.40
2019-04-20T04:11:20.005Z,12.20
2019-04-20T04:13:37.750Z,12.20
2019-04-20T04:16:10.010Z,12.10
2019-04-20T04:18:42.728Z,12.10
2019-04-20T04:21:13.916Z,12.20
2019-04-20T04:23:55.839Z,12.30
2019-04-20T04:26:27.509Z,12.40
2019-04-20T04:29:00.354Z,12.40
2019-04-20T04:31:33.203Z,12.40
2019-04-20T04:34:12.596Z,12.40
2019-04-20T04:36:26.016Z,12.30
2019-04-20T04:39:03.645Z,12.30
2019-04-20T04:41:35.468Z,12.30
2019-04-20T04:44:04.517Z,12.30
2019-04-20T04:46:16.551Z,12.30
2019-04-20T04:48:48.145Z,12.20
2019-04-20T04:51:22.933Z,12.20
2019-04-20T04:53:55.104Z,12.10
2019-04-20T04:56:21.454Z,12.10
2019-04-20T04:58:49.305Z,12.10
2019-04-20T05:01:25.371Z,12.20
2019-04-20T05:04:14.756Z,12.30
2019-04-20T05:06:35.605Z,12.20
2019-04-20T05:08:56.580Z,12.20
2019-04-20T05:11:23.833Z,12.20
2019-04-20T05:13:58.470Z,12.20
2019-04-20T05:16:43.821Z,12.20
2019-04-20T05:21:58.758Z,12.20
2019-04-20T05:24:37.280Z,12.20
2019-04-20T05:27:33.539Z,12.20
2019-04-20T05:29:39.515Z,12.20
2019-04-20T05:32:14.642Z,12.10
2019-04-20T05:35:05.538Z,12.10
2019-04-20T05:37:34.363Z,12.20
2019-04-20T05:40:05.993Z,12.30
2019-04-20T05:42:31.323Z,12.20
2019-04-20T05:44:55.638Z,12.20
2019-04-20T05:47:33.416Z,12.20
2019-04-20T05:49:56.986Z,12.20
2019-04-20T05:55:02.753Z,12.10
2019-04-20T05:57:40.063Z,12.30
2019-04-20T06:00:07.197Z,12.30
2019-04-20T06:02:36.412Z,12.30
2019-04-20T06:05:11.407Z,12.30
2019-04-20T06:07:35.890Z,12.30
2019-04-20T06:10:16.851Z,12.30
2019-04-20T06:12:40.006Z,12.20
2019-04-20T06:15:26.344Z,12.00
2019-04-20T06:17:58.385Z,12.00
2019-04-20T06:20:36.691Z,12.10
2019-04-20T06:23:25.707Z,12.00
2019-04-20T06:28:22.191Z,11.70
2019-04-20T06:30:48.045Z,11.70
2019-04-20T06:34:27.577Z,11.70
2019-04-20T06:36:38.963Z,11.60
2019-04-20T06:39:08.400Z,11.70
2019-04-20T06:41:57.353Z,11.90
2019-04-20T06:44:17.720Z,12.10
2019-04-20T06:46:45.607Z,12.30
2019-04-20T06:49:19.611Z,12.40
2019-04-20T06:51:47.360Z,12.50
2019-04-20T06:54:11.421Z,12.70
2019-04-20T06:56:48.446Z,12.80
2019-04-20T06:59:27.703Z,12.90
2019-04-20T07:01:56.824Z,13.00
2019-04-20T07:04:38.949Z,13.10
2019-04-20T07:06:56.287Z,13.20
2019-04-20T07:09:34.523Z,13.30
2019-04-20T07:11:59.833Z,13.30
2019-04-20T07:14:12.073Z,13.40
2019-04-20T07:17:26.885Z,13.50
2019-04-20T07:19:50.233Z,13.70
2019-04-20T07:22:33.478Z,13.80
2019-04-20T07:25:02.378Z,13.90
2019-04-20T07:27:29.496Z,13.90
2019-04-20T07:30:06.299Z,14.00
2019-04-20T07:32:41.843Z,13.90
2019-04-20T07:35:03.081Z,14.20
2019-04-20T07:38:07.128Z,14.30
2019-04-20T07:40:10.370Z,14.40
2019-04-20T07:42:43.314Z,14.40
2019-04-20T07:45:18.138Z,14.50
2019-04-20T07:47:46.624Z,14.50
2019-04-20T07:50:07.671Z,14.60
2019-04-20T07:52:36.707Z,14.80
2019-04-20T07:57:39.096Z,15.00
2019-04-20T08:00:14.852Z,15.10
2019-04-20T08:03:20.179Z,15.20
2019-04-20T08:05:39.484Z,15.30
2019-04-20T08:08:20.973Z,15.50
2019-04-20T08:10:46.825Z,15.50
2019-04-20T08:15:57.095Z,15.70
2019-04-20T08:18:27.720Z,15.70
2019-04-20T08:20:52.671Z,15.90
2019-04-20T08:23:23.107Z,16.10
2019-04-20T08:25:47.510Z,16.30
2019-04-20T08:28:39.260Z,16.40
2019-04-20T08:31:29.200Z,16.50
2019-04-20T08:34:13.644Z,16.80
2019-04-20T08:36:41.702Z,16.80
2019-04-20T08:41:31.837Z,17.00
2019-04-20T08:44:21.110Z,17.10
2019-04-20T08:46:47.267Z,17.30
2019-04-20T08:49:11.592Z,17.60
2019-04-20T08:51:41.937Z,17.70
2019-04-20T08:54:08.605Z,17.80
2019-04-20T08:56:31.925Z,17.90
2019-04-20T08:58:50.749Z,18.10
2019-04-20T09:01:23.103Z,18.30
2019-04-20T09:04:01.419Z,18.40
2019-04-20T09:06:36.506Z,18.60
2019-04-20T09:09:11.646Z,18.70
2019-04-20T09:11:48.143Z,18.70
2019-04-20T09:14:00.885Z,18.60
2019-04-20T09:16:35.668Z,18.60
2019-04-20T09:19:04.625Z,18.80
2019-04-20T09:21:40.297Z,18.90
2019-04-20T09:24:25.421Z,18.90
2019-04-20T09:26:50.570Z,18.80
2019-04-20T09:29:12.739Z,18.90
2019-04-20T09:31:52.138Z,19.10
2019-04-20T09:34:36.999Z,19.30
2019-04-20T09:37:20.372Z,19.40
2019-04-20T09:39:44.984Z,19.50
2019-04-20T09:42:21.872Z,19.60
2019-04-20T09:44:54.375Z,19.60
2019-04-20T09:47:29.924Z,19.50
2019-04-20T09:50:03.514Z,19.50
2019-04-20T09:52:45.699Z,19.70
2019-04-20T09:55:06.910Z,19.90
2019-04-20T09:57:43.774Z,20.10
2019-04-20T10:00:12.153Z,20.20
2019-04-20T10:02:29.892Z,20.30
2019-04-20T10:04:57.714Z,20.30
2019-04-20T10:07:32.611Z,20.30
2019-04-20T10:09:57.945Z,20.30
2019-04-20T10:12:27.002Z,20.40
2019-04-20T10:14:57.534Z,20.40
2019-04-20T10:17:29.632Z,20.40
2019-04-20T10:19:57.727Z,20.50
2019-04-20T10:22:26.821Z,20.80
2019-04-20T10:24:57.117Z,20.90
2019-04-20T10:27:26.539Z,20.90
2019-04-20T10:29:55.659Z,20.70
2019-04-20T10:32:31.114Z,20.60
2019-04-20T10:34:56.743Z,20.40
2019-04-20T10:37:29.455Z,20.60
2019-04-20T10:39:58.557Z,20.80
2019-04-20T10:42:28.116Z,20.90
2019-04-20T10:44:58.904Z,20.90
2019-04-20T10:47:29.269Z,21.00
2019-04-20T10:49:58.906Z,21.20
2019-04-20T10:52:27.907Z,21.10
2019-04-20T10:54:56.847Z,21.40
2019-04-20T10:57:25.832Z,21.60
2019-04-20T10:59:55.421Z,21.70
2019-04-20T11:02:25.733Z,21.80
2019-04-20T11:04:54.848Z,21.90
2019-04-20T11:07:23.714Z,22.00
2019-04-20T11:10:04.339Z,21.90
2019-04-20T11:12:24.254Z,21.80
2019-04-20T11:14:54.489Z,21.60
2019-04-20T11:17:24.555Z,21.70
2019-04-20T11:19:54.917Z,21.80
2019-04-20T11:22:24.246Z,21.70
2019-04-20T11:24:54.209Z,21.80
2019-04-20T11:27:23.334Z,21.70
2019-04-20T11:29:52.170Z,21.70
2019-04-20T11:32:22.226Z,21.60
2019-04-20T11:34:51.476Z,21.70
2019-04-20T11:37:21.300Z,21.90
2019-04-20T11:39:50.784Z,21.90
2019-04-20T11:42:19.967Z,21.90
2019-04-20T11:44:48.882Z,21.80
2019-04-20T11:47:18.867Z,21.80
2019-04-20T11:49:49.223Z,21.90
2019-04-20T11:52:21.384Z,22.00
2019-04-20T11:54:48.842Z,22.00
2019-04-20T11:57:17.939Z,22.00
2019-04-20T11:59:47.296Z,21.80
2019-04-20T12:02:34.909Z,21.60
2019-04-20T12:05:13.175Z,21.70
2019-04-20T12:07:40.492Z,21.80
2019-04-20T12:10:15.151Z,21.90
2019-04-20T12:12:44.344Z,21.90
2019-04-20T12:15:11.046Z,21.80
2019-04-20T12:17:39.849Z,21.90
2019-04-20T12:20:10.099Z,22.10
2019-04-20T12:22:40.011Z,22.10
2019-04-20T12:25:10.035Z,22.20
2019-04-20T12:27:41.113Z,22.20
2019-04-20T12:30:12.111Z,22.00
2019-04-20T12:32:44.972Z,22.00
2019-04-20T12:35:14.021Z,22.20
2019-04-20T12:37:43.169Z,22.20
2019-04-20T12:40:14.263Z,22.30
2019-04-20T12:42:44.222Z,22.20
2019-04-20T12:45:16.102Z,22.10
2019-04-20T12:47:46.968Z,22.00
2019-04-20T12:50:17.344Z,22.00
2019-04-20T12:52:46.316Z,22.10
2019-04-20T12:55:16.652Z,22.10
2019-04-20T12:57:46.883Z,22.10
2019-04-20T13:00:17.401Z,22.20
2019-04-20T13:02:47.383Z,22.20
2019-04-20T13:05:17.568Z,22.20
2019-04-20T13:07:52.722Z,22.20
2019-04-20T13:10:18.514Z,22.30
2019-04-20T13:13:08.083Z,22.40
2019-04-20T13:16:00.384Z,22.50
2019-04-20T13:18:41.147Z,22.70
2019-04-20T13:21:11.183Z,22.80
2019-04-20T13:23:40.597Z,22.80
2019-04-20T13:26:11.023Z,22.60
2019-04-20T13:28:43.033Z,22.60
2019-04-20T13:31:13.615Z,22.60
2019-04-20T13:33:43.249Z,22.70
2019-04-20T13:36:12.501Z,22.80
2019-04-20T13:38:41.848Z,22.60
2019-04-20T13:41:11.675Z,22.50
2019-04-20T13:43:41.878Z,22.50
2019-04-20T13:46:11.158Z,22.60
2019-04-20T13:48:39.999Z,22.60
2019-04-20T13:51:09.909Z,22.70
2019-04-20T13:53:39.348Z,22.60
2019-04-20T13:56:09.733Z,22.60
2019-04-20T13:58:56.477Z,22.60
2019-04-20T14:01:41.152Z,22.60
2019-04-20T14:04:13.530Z,22.40
2019-04-20T14:06:44.083Z,22.40
2019-04-20T14:09:13.415Z,22.30
2019-04-20T14:11:43.452Z,22.30
2019-04-20T14:14:13.093Z,22.30
2019-04-20T14:16:43.066Z,22.50
2019-04-20T14:19:14.206Z,22.60
2019-04-20T14:21:44.005Z,22.60
2019-04-20T14:24:13.159Z,22.40
2019-04-20T14:26:43.752Z,22.20
2019-04-20T14:29:12.843Z,22.00
2019-04-20T14:31:42.120Z,22.10
2019-04-20T14:34:11.020Z,22.20
2019-04-20T14:36:41.244Z,22.30
2019-04-20T14:39:10.536Z,22.20
2019-04-20T14:41:40.355Z,22.20
2019-04-20T14:44:10.016Z,22.10
2019-04-20T14:46:39.943Z,22.10
2019-04-20T14:49:10.332Z,22.10
2019-04-20T14:51:39.561Z,22.10
2019-04-20T14:54:09.663Z,22.10
2019-04-20T14:56:38.619Z,22.10
2019-04-20T14:59:25.367Z,22.10
2019-04-20T15:02:00.827Z,22.10
2019-04-20T15:04:32.058Z,22.20
2019-04-20T15:07:02.376Z,22.10
2019-04-20T15:09:34.554Z,21.90
2019-04-20T15:12:04.571Z,21.70
2019-04-20T15:14:34.612Z,21.80
2019-04-20T15:17:04.749Z,21.90
2019-04-20T15:19:57.126Z,21.90
2019-04-20T15:22:29.615Z,22.10
2019-04-20T15:24:59.967Z,22.10
2019-04-20T15:27:30.338Z,22.00
2019-04-20T15:30:00.276Z,21.90
2019-04-20T15:32:29.626Z,21.80
2019-04-20T15:34:58.666Z,21.80
2019-04-20T15:37:28.884Z,21.80
2019-04-20T15:39:59.032Z,21.80
2019-04-20T15:42:27.895Z,21.90
2019-04-20T15:44:57.682Z,22.00
2019-04-20T15:47:27.948Z,22.00
2019-04-20T15:49:58.087Z,22.00
2019-04-20T15:52:31.889Z,21.90
2019-04-20T15:55:01.894Z,21.90
2019-04-20T15:57:31.117Z,21.60
2019-04-20T16:00:00.336Z,21.50
2019-04-20T16:02:41.245Z,21.40
2019-04-20T16:05:38.430Z,21.60
2019-04-20T16:08:21.996Z,21.60
2019-04-20T16:10:51.284Z,21.60
2019-04-20T16:13:27.756Z,21.60
2019-04-20T16:15:51.661Z,21.50
2019-04-20T16:18:20.982Z,21.40
2019-04-20T16:20:58.714Z,21.40
2019-04-20T16:23:22.660Z,21.50
2019-04-20T16:26:07.803Z,21.50
2019-04-20T16:28:37.555Z,21.60
2019-04-20T16:31:10.018Z,21.60
2019-04-20T16:33:38.784Z,21.70
2019-04-20T16:36:08.207Z,21.70
2019-04-20T16:38:37.325Z,21.60
2019-04-20T16:41:06.634Z,21.40
2019-04-20T16:43:40.750Z,21.30
2019-04-20T16:46:06.220Z,21.20
2019-04-20T16:48:35.956Z,21.00
2019-04-20T16:51:06.818Z,20.90
2019-04-20T16:53:38.316Z,20.90
2019-04-20T16:56:06.675Z,20.80
2019-04-20T16:58:35.770Z,20.70
2019-04-20T17:01:05.695Z,20.70
2019-04-20T17:03:44.499Z,20.60
2019-04-20T17:06:06.388Z,20.60
2019-04-20T17:08:36.822Z,20.50
2019-04-20T17:11:07.677Z,20.40
2019-04-20T17:13:44.151Z,20.20
2019-04-20T17:16:07.884Z,20.20
2019-04-20T17:18:37.370Z,20.10
2019-04-20T17:21:14.662Z,20.20
2019-04-20T17:23:37.486Z,20.20
2019-04-20T17:26:10.214Z,19.90
2019-04-20T17:29:02.103Z,19.90
2019-04-20T17:31:51.228Z,20.00
2019-04-20T17:34:39.829Z,19.90
2019-04-20T17:36:52.740Z,19.90
2019-04-20T17:39:33.976Z,19.80
2019-04-20T17:42:11.772Z,19.70
2019-04-20T17:44:35.716Z,19.70
2019-04-20T17:47:09.830Z,19.60
2019-04-20T17:49:34.266Z,19.50
2019-04-20T17:52:22.242Z,19.50
2019-04-20T17:54:35.486Z,19.60
2019-04-20T17:57:07.774Z,19.60
2019-04-20T17:59:38.090Z,19.70
2019-04-20T18:02:51.028Z,19.70
2019-04-20T18:05:32.760Z,19.70
2019-04-20T18:08:10.618Z,19.60
2019-04-20T18:10:31.754Z,19.60
2019-04-20T18:12:53.081Z,19.60
2019-04-20T18:15:35.915Z,19.50
2019-04-20T18:18:24.527Z,19.40
2019-04-20T18:20:56.893Z,19.30
2019-04-20T18:23:33.731Z,19.20
2019-04-20T18:26:17.092Z,19.10
2019-04-20T18:28:52.817Z,19.00
2019-04-20T18:31:19.902Z,18.90
2019-04-20T18:33:50.645Z,18.80
2019-04-20T18:36:27.325Z,18.70
2019-04-20T18:38:57.432Z,18.70
2019-04-20T18:41:33.225Z,18.50
2019-04-20T18:43:55.929Z,18.30
2019-04-20T18:46:39.256Z,18.20
2019-04-20T18:49:10.211Z,18.10
2019-04-20T18:51:24.027Z,18.00
2019-04-20T18:53:53.878Z,17.90
2019-04-20T18:56:30.109Z,17.90
2019-04-20T18:58:55.616Z,17.80
2019-04-20T19:01:32.067Z,17.70
2019-04-20T19:03:57.137Z,17.50
2019-04-20T19:06:26.001Z,17.50
2019-04-20T19:08:55.935Z,17.50
2019-04-20T19:11:27.051Z,17.50
2019-04-20T19:14:14.832Z,17.50
2019-04-20T19:16:54.131Z,17.50
2019-04-20T19:19:25.817Z,17.60
2019-04-20T19:21:46.128Z,17.50
2019-04-20T19:24:18.288Z,17.50
2019-04-20T19:26:51.526Z,17.50
2019-04-20T19:29:26.474Z,17.50
2019-04-20T19:32:07.641Z,17.50
2019-04-20T19:34:35.278Z,17.50
2019-04-20T19:37:00.846Z,17.50
2019-04-20T19:39:32.146Z,17.40
2019-04-20T19:42:01.251Z,17.40
2019-04-20T19:44:33.206Z,17.30
2019-04-20T19:47:13.769Z,17.30
2019-04-20T19:49:34.005Z,17.10
2019-04-20T19:52:25.483Z,17.00
2019-04-20T19:54:40.036Z,17.00
2019-04-20T19:57:04.864Z,16.90
2019-04-20T19:59:34.234Z,16.90
2019-04-20T20:01:55.860Z,16.80
2019-04-20T20:04:25.859Z,16.70
2019-04-20T20:07:01.862Z,16.80
2019-04-20T20:09:25.937Z,16.80
2019-04-20T20:11:56.069Z,16.90
2019-04-20T20:14:34.323Z,16.90
2019-04-20T20:17:14.267Z,16.80
2019-04-20T20:19:53.620Z,16.80
2019-04-20T20:22:08.974Z,16.80
2019-04-20T20:24:29.171Z,16.80
2019-04-20T20:27:04.232Z,16.80
2019-04-20T20:29:37.627Z,16.80
2019-04-20T20:32:10.314Z,16.70
2019-04-20T20:34:36.114Z,16.60
2019-04-20T20:37:08.492Z,16.60
2019-04-20T20:39:35.131Z,16.60
2019-04-20T20:42:15.362Z,16.50
2019-04-20T20:44:41.191Z,16.30
2019-04-20T20:47:30.083Z,16.10
2019-04-20T20:49:58.534Z,16.00
2019-04-20T20:52:21.835Z,15.90
2019-04-20T20:54:47.770Z,15.90
2019-04-20T20:57:11.484Z,15.80
2019-04-20T20:59:49.397Z,15.80
2019-04-20T21:02:19.321Z,15.80
2019-04-20T21:04:39.470Z,15.80
2019-04-20T21:07:08.831Z,15.80
2019-04-20T21:09:37.824Z,15.80
2019-04-20T21:12:10.790Z,15.70
2019-04-20T21:14:40.600Z,15.70
2019-04-20T21:17:12.934Z,15.60
2019-04-20T21:19:58.340Z,15.50
2019-04-20T21:22:18.552Z,15.40
2019-04-20T21:24:45.441Z,15.30
2019-04-20T21:27:17.021Z,15.30
2019-04-20T21:29:50.799Z,15.20
2019-04-20T21:32:17.651Z,15.10
2019-04-20T21:34:53.562Z,15.10
2019-04-20T21:37:19.438Z,15.00
2019-04-20T21:39:53.458Z,15.00
2019-04-20T21:42:20.995Z,14.90
2019-04-20T21:44:50.360Z,14.90
2019-04-20T21:47:27.374Z,14.90
2019-04-20T21:49:57.777Z,14.80
2019-04-20T21:52:26.995Z,14.80
2019-04-20T21:54:51.961Z,14.80
2019-04-20T21:57:22.058Z,14.70
2019-04-20T21:59:54.292Z,14.70
2019-04-20T22:02:28.161Z,14.80
2019-04-20T22:04:53.526Z,15.00
2019-04-20T22:07:22.823Z,14.90
2019-04-20T22:09:54.701Z,14.90
2019-04-20T22:12:23.584Z,15.00
2019-04-20T22:14:58.791Z,15.10
2019-04-20T22:17:28.850Z,15.10
2019-04-20T22:20:06.942Z,15.10
2019-04-20T22:22:42.531Z,15.10
2019-04-20T22:25:08.011Z,15.10
2019-04-20T22:27:31.280Z,15.00
2019-04-20T22:29:57.534Z,15.00
2019-04-20T22:32:27.996Z,15.00
2019-04-20T22:35:01.349Z,14.90
2019-04-20T22:37:35.306Z,14.90
2019-04-20T22:40:06.954Z,14.80
2019-04-20T22:42:40.105Z,14.70
2019-04-20T22:45:11.488Z,14.70
2019-04-20T22:47:39.033Z,14.60
2019-04-20T22:50:31.935Z,14.60
2019-04-20T22:52:50.412Z,14.60
2019-04-20T22:55:47.618Z,14.50
2019-04-20T22:57:53.693Z,14.40
2019-04-20T23:00:16.753Z,14.40
2019-04-20T23:02:42.854Z,14.30
2019-04-20T23:05:13.031Z,14.20
2019-04-20T23:07:42.570Z,14.20
2019-04-20T23:10:11.587Z,14.20
2019-04-20T23:12:45.692Z,14.10
2019-04-20T23:15:12.176Z,14.10
2019-04-20T23:17:45.092Z,14.00
2019-04-20T23:20:17.258Z,14.00
2019-04-20T23:22:46.177Z,14.00
2019-04-20T23:25:13.526Z,13.90
2019-04-20T23:27:43.707Z,13.90
2019-04-20T23:30:23.609Z,13.90
2019-04-20T23:32:44.166Z,13.80
2019-04-20T23:35:18.544Z,13.70
2019-04-20T23:37:46.300Z,13.60
2019-04-20T23:40:16.701Z,13.50
2019-04-20T23:43:10.244Z,13.50
2019-04-20T23:45:55.217Z,13.50
2019-04-20T23:48:38.896Z,13.50
2019-04-20T23:51:29.231Z,13.50
2019-04-20T23:53:48.208Z,13.40
2019-04-20T23:56:07.806Z,13.40
2019-04-20T23:58:42.941Z,13.40
